sensor_id;sensor_type;location;lat;lon;timestamp;pressure;altitude;pressure_sealevel;temperature;humidity
52651;BME280;38537;47.226;39.702;2022-11-23T00:01:30;100159.25;;;11.60;52.78
52651;BME280;38537;47.226;39.702;2022-11-23T00:04:04;100164.47;;;11.31;52.97
52651;BME280;38537;47.226;39.702;2022-11-23T00:06:32;100178.91;;;11.24;53.64
52651;BME280;38537;47.226;39.702;2022-11-23T00:09:00;100169.31;;;11.17;54.08
52651;BME280;38537;47.226;39.702;2022-11-23T00:11:28;100177.63;;;11.30;53.59
52651;BME280;38537;47.226;39.702;2022-11-23T00:13:55;100169.53;;;11.29;53.90
52651;BME280;38537;47.226;39.702;2022-11-23T00:16:27;100191.47;;;11.36;53.84
52651;BME280;38537;47.226;39.702;2022-11-23T00:18:57;100180.03;;;11.46;53.65
52651;BME280;38537;47.226;39.702;2022-11-23T00:21:26;100202.34;;;11.37;53.45
52651;BME280;38537;47.226;39.702;2022-11-23T00:23:54;100167.38;;;11.26;53.89
52651;BME280;38537;47.226;39.702;2022-11-23T00:26:21;100210.34;;;11.30;53.79
52651;BME280;38537;47.226;39.702;2022-11-23T00:28:48;100195.72;;;11.33;54.03
52651;BME280;38537;47.226;39.702;2022-11-23T00:31:17;100206.59;;;11.34;53.73
52651;BME280;38537;47.226;39.702;2022-11-23T00:33:48;100213.28;;;11.47;53.89
52651;BME280;38537;47.226;39.702;2022-11-23T00:36:16;100195.03;;;11.27;53.74
52651;BME280;38537;47.226;39.702;2022-11-23T00:38:44;100188.69;;;11.36;54.46
52651;BME280;38537;47.226;39.702;2022-11-23T00:41:14;100196.53;;;11.11;53.12
52651;BME280;38537;47.226;39.702;2022-11-23T00:43:42;100205.09;;;10.92;53.98
52651;BME280;38537;47.226;39.702;2022-11-23T00:46:15;100195.38;;;10.90;54.45
52651;BME280;38537;47.226;39.702;2022-11-23T00:48:45;100206.84;;;11.02;54.88
52651;BME280;38537;47.226;39.702;2022-11-23T00:51:15;100213.09;;;11.08;54.45
52651;BME280;38537;47.226;39.702;2022-11-23T00:53:43;100209.13;;;10.86;54.75
52651;BME280;38537;47.226;39.702;2022-11-23T00:56:10;100215.91;;;10.44;54.79
52651;BME280;38537;47.226;39.702;2022-11-23T00:58:38;100222.25;;;10.36;55.83
52651;BME280;38537;47.226;39.702;2022-11-23T01:01:11;100227.94;;;10.31;56.79
52651;BME280;38537;47.226;39.702;2022-11-23T01:03:44;100220.16;;;10.42;56.67
52651;BME280;38537;47.226;39.702;2022-11-23T01:06:20;100224.59;;;10.70;55.99
52651;BME280;38537;47.226;39.702;2022-11-23T01:08:52;100221.66;;;10.89;55.23
52651;BME280;38537;47.226;39.702;2022-11-23T01:11:23;100217.50;;;10.86;55.36
52651;BME280;38537;47.226;39.702;2022-11-23T01:13:50;100201.56;;;11.01;55.04
52651;BME280;38537;47.226;39.702;2022-11-23T01:18:54;100237.91;;;11.23;54.21
52651;BME280;38537;47.226;39.702;2022-11-23T01:21:24;100200.06;;;11.17;53.77
52651;BME280;38537;47.226;39.702;2022-11-23T01:23:52;100247.97;;;11.24;53.79
52651;BME280;38537;47.226;39.702;2022-11-23T01:26:19;100222.16;;;11.27;54.29
52651;BME280;38537;47.226;39.702;2022-11-23T01:28:47;100233.66;;;11.25;53.44
52651;BME280;38537;47.226;39.702;2022-11-23T01:31:17;100248.78;;;11.24;53.13
52651;BME280;38537;47.226;39.702;2022-11-23T01:33:45;100239.94;;;11.31;53.60
52651;BME280;38537;47.226;39.702;2022-11-23T01:36:15;100248.63;;;11.29;53.69
52651;BME280;38537;47.226;39.702;2022-11-23T01:38:43;100244.91;;;11.34;53.33
52651;BME280;38537;47.226;39.702;2022-11-23T01:41:15;100235.94;;;11.23;53.58
52651;BME280;38537;47.226;39.702;2022-11-23T01:43:44;100241.22;;;11.25;53.29
52651;BME280;38537;47.226;39.702;2022-11-23T01:46:12;100251.94;;;11.31;53.65
52651;BME280;38537;47.226;39.702;2022-11-23T01:48:46;100266.28;;;11.16;53.28
52651;BME280;38537;47.226;39.702;2022-11-23T01:51:22;100262.78;;;11.11;53.31
52651;BME280;38537;47.226;39.702;2022-11-23T01:53:52;100271.50;;;10.95;53.83
52651;BME280;38537;47.226;39.702;2022-11-23T01:56:28;100271.09;;;10.88;53.25
52651;BME280;38537;47.226;39.702;2022-11-23T01:58:59;100296.72;;;11.18;53.32
52651;BME280;38537;47.226;39.702;2022-11-23T02:01:28;100262.56;;;11.07;53.32
52651;BME280;38537;47.226;39.702;2022-11-23T02:03:58;100279.63;;;11.19;52.99
52651;BME280;38537;47.226;39.702;2022-11-23T02:06:27;100275.13;;;11.32;53.13
52651;BME280;38537;47.226;39.702;2022-11-23T02:08:55;100262.81;;;11.33;52.77
52651;BME280;38537;47.226;39.702;2022-11-23T02:11:22;100271.03;;;11.52;52.74
52651;BME280;38537;47.226;39.702;2022-11-23T02:13:50;100294.78;;;11.41;52.53
52651;BME280;38537;47.226;39.702;2022-11-23T02:16:18;100299.75;;;11.44;52.68
52651;BME280;38537;47.226;39.702;2022-11-23T02:18:47;100293.13;;;11.40;52.94
52651;BME280;38537;47.226;39.702;2022-11-23T02:21:19;100295.63;;;11.41;52.67
52651;BME280;38537;47.226;39.702;2022-11-23T02:24:10;100289.69;;;11.20;52.81
52651;BME280;38537;47.226;39.702;2022-11-23T02:26:40;100303.53;;;11.25;52.35
52651;BME280;38537;47.226;39.702;2022-11-23T02:29:21;100314.53;;;11.22;52.63
52651;BME280;38537;47.226;39.702;2022-11-23T02:31:50;100320.56;;;10.88;53.06
52651;BME280;38537;47.226;39.702;2022-11-23T02:34:18;100330.94;;;10.60;53.62
52651;BME280;38537;47.226;39.702;2022-11-23T02:36:47;100301.00;;;10.47;54.06
52651;BME280;38537;47.226;39.702;2022-11-23T02:39:39;100305.88;;;10.69;53.72
52651;BME280;38537;47.226;39.702;2022-11-23T02:42:08;100324.38;;;10.37;53.65
52651;BME280;38537;47.226;39.702;2022-11-23T02:47:22;100329.38;;;10.81;53.61
52651;BME280;38537;47.226;39.702;2022-11-23T02:49:49;100312.94;;;10.80;53.29
52651;BME280;38537;47.226;39.702;2022-11-23T02:52:17;100313.84;;;11.03;53.24
52651;BME280;38537;47.226;39.702;2022-11-23T02:54:45;100317.00;;;11.10;52.58
52651;BME280;38537;47.226;39.702;2022-11-23T02:57:13;100318.97;;;11.23;52.83
52651;BME280;38537;47.226;39.702;2022-11-23T02:59:44;100336.25;;;11.11;52.50
52651;BME280;38537;47.226;39.702;2022-11-23T03:02:11;100322.31;;;10.97;52.79
52651;BME280;38537;47.226;39.702;2022-11-23T03:04:39;100324.69;;;11.04;53.65
52651;BME280;38537;47.226;39.702;2022-11-23T03:07:06;100319.50;;;11.11;53.35
52651;BME280;38537;47.226;39.702;2022-11-23T03:09:34;100328.00;;;10.92;53.25
52651;BME280;38537;47.226;39.702;2022-11-23T03:12:02;100318.06;;;10.86;53.60
52651;BME280;38537;47.226;39.702;2022-11-23T03:14:30;100330.31;;;10.77;54.05
52651;BME280;38537;47.226;39.702;2022-11-23T03:16:58;100341.47;;;10.90;53.58
52651;BME280;38537;47.226;39.702;2022-11-23T03:19:28;100344.47;;;10.80;53.28
52651;BME280;38537;47.226;39.702;2022-11-23T03:21:57;100324.59;;;10.95;53.57
52651;BME280;38537;47.226;39.702;2022-11-23T03:24:29;100336.50;;;10.60;53.24
52651;BME280;38537;47.226;39.702;2022-11-23T03:26:56;100327.78;;;10.61;53.77
52651;BME280;38537;47.226;39.702;2022-11-23T03:29:24;100323.69;;;10.59;54.03
52651;BME280;38537;47.226;39.702;2022-11-23T03:31:54;100332.34;;;10.71;54.40
52651;BME280;38537;47.226;39.702;2022-11-23T03:34:21;100316.53;;;10.53;53.91
52651;BME280;38537;47.226;39.702;2022-11-23T03:36:50;100338.03;;;10.66;53.94
52651;BME280;38537;47.226;39.702;2022-11-23T03:39:18;100337.53;;;10.64;54.13
52651;BME280;38537;47.226;39.702;2022-11-23T03:42:06;100314.56;;;10.67;53.76
52651;BME280;38537;47.226;39.702;2022-11-23T03:44:34;100333.41;;;10.75;53.26
52651;BME280;38537;47.226;39.702;2022-11-23T03:47:03;100326.78;;;10.71;53.69
52651;BME280;38537;47.226;39.702;2022-11-23T03:49:32;100352.47;;;10.41;52.97
52651;BME280;38537;47.226;39.702;2022-11-23T03:52:00;100346.94;;;10.54;54.00
52651;BME280;38537;47.226;39.702;2022-11-23T03:54:27;100350.56;;;10.55;53.70
52651;BME280;38537;47.226;39.702;2022-11-23T03:56:58;100358.00;;;10.59;53.71
52651;BME280;38537;47.226;39.702;2022-11-23T03:59:26;100336.19;;;10.75;53.43
52651;BME280;38537;47.226;39.702;2022-11-23T04:01:54;100372.59;;;10.97;53.16
52651;BME280;38537;47.226;39.702;2022-11-23T04:04:25;100368.78;;;10.93;52.84
52651;BME280;38537;47.226;39.702;2022-11-23T04:07:21;100352.72;;;11.13;52.73
52651;BME280;38537;47.226;39.702;2022-11-23T04:09:52;100341.16;;;10.92;53.28
52651;BME280;38537;47.226;39.702;2022-11-23T04:12:25;100340.00;;;10.93;53.25
52651;BME280;38537;47.226;39.702;2022-11-23T04:14:52;100341.47;;;10.90;53.54
52651;BME280;38537;47.226;39.702;2022-11-23T04:17:23;100364.34;;;10.79;53.48
52651;BME280;38537;47.226;39.702;2022-11-23T04:19:50;100332.25;;;10.62;54.11
52651;BME280;38537;47.226;39.702;2022-11-23T04:22:17;100345.28;;;10.67;54.11
52651;BME280;38537;47.226;39.702;2022-11-23T04:24:46;100359.41;;;10.29;54.31
52651;BME280;38537;47.226;39.702;2022-11-23T04:27:13;100369.13;;;10.32;54.66
52651;BME280;38537;47.226;39.702;2022-11-23T04:29:41;100338.44;;;10.32;54.88
52651;BME280;38537;47.226;39.702;2022-11-23T04:32:09;100371.91;;;10.32;54.70
52651;BME280;38537;47.226;39.702;2022-11-23T04:34:36;100373.69;;;10.42;54.39
52651;BME280;38537;47.226;39.702;2022-11-23T04:37:05;100347.66;;;10.46;54.50
52651;BME280;38537;47.226;39.702;2022-11-23T04:39:40;100357.69;;;10.47;54.45
52651;BME280;38537;47.226;39.702;2022-11-23T04:42:19;100379.47;;;10.32;54.80
52651;BME280;38537;47.226;39.702;2022-11-23T04:44:54;100365.81;;;10.30;54.72
52651;BME280;38537;47.226;39.702;2022-11-23T04:47:24;100381.34;;;10.36;54.82
52651;BME280;38537;47.226;39.702;2022-11-23T04:49:53;100364.00;;;10.39;54.96
52651;BME280;38537;47.226;39.702;2022-11-23T04:52:24;100397.50;;;10.53;54.67
52651;BME280;38537;47.226;39.702;2022-11-23T04:54:52;100385.13;;;10.59;54.54
52651;BME280;38537;47.226;39.702;2022-11-23T04:57:21;100389.56;;;10.74;54.17
52651;BME280;38537;47.226;39.702;2022-11-23T04:59:50;100379.94;;;10.93;53.85
52651;BME280;38537;47.226;39.702;2022-11-23T05:02:18;100413.06;;;11.00;53.96
52651;BME280;38537;47.226;39.702;2022-11-23T05:04:55;100435.88;;;10.61;54.09
52651;BME280;38537;47.226;39.702;2022-11-23T05:07:30;100456.25;;;10.61;54.58
52651;BME280;38537;47.226;39.702;2022-11-23T05:10:03;100454.41;;;10.71;54.01
52651;BME280;38537;47.226;39.702;2022-11-23T05:12:33;100450.63;;;10.48;54.18
52651;BME280;38537;47.226;39.702;2022-11-23T05:15:03;100433.88;;;10.48;54.80
52651;BME280;38537;47.226;39.702;2022-11-23T05:17:34;100437.66;;;10.71;54.10
52651;BME280;38537;47.226;39.702;2022-11-23T05:20:06;100459.31;;;10.79;54.10
52651;BME280;38537;47.226;39.702;2022-11-23T05:22:37;100444.47;;;10.64;53.94
52651;BME280;38537;47.226;39.702;2022-11-23T05:25:07;100458.88;;;10.85;54.33
52651;BME280;38537;47.226;39.702;2022-11-23T05:27:38;100455.06;;;10.95;53.79
52651;BME280;38537;47.226;39.702;2022-11-23T05:30:06;100475.63;;;10.85;53.95
52651;BME280;38537;47.226;39.702;2022-11-23T05:32:35;100455.06;;;10.81;54.04
52651;BME280;38537;47.226;39.702;2022-11-23T05:35:03;100448.03;;;10.97;53.90
52651;BME280;38537;47.226;39.702;2022-11-23T05:37:33;100473.50;;;11.10;53.63
52651;BME280;38537;47.226;39.702;2022-11-23T05:40:03;100493.97;;;10.91;53.13
52651;BME280;38537;47.226;39.702;2022-11-23T05:42:31;100492.59;;;10.75;53.76
52651;BME280;38537;47.226;39.702;2022-11-23T05:45:06;100495.16;;;11.04;54.29
52651;BME280;38537;47.226;39.702;2022-11-23T05:47:41;100481.44;;;10.89;54.41
52651;BME280;38537;47.226;39.702;2022-11-23T05:50:18;100498.72;;;10.77;54.62
52651;BME280;38537;47.226;39.702;2022-11-23T05:52:46;100484.13;;;10.80;54.35
52651;BME280;38537;47.226;39.702;2022-11-23T05:55:14;100492.59;;;10.75;55.26
52651;BME280;38537;47.226;39.702;2022-11-23T05:57:43;100467.25;;;10.72;54.96
52651;BME280;38537;47.226;39.702;2022-11-23T06:00:11;100473.50;;;10.96;54.63
52651;BME280;38537;47.226;39.702;2022-11-23T06:02:38;100483.25;;;11.12;54.06
52651;BME280;38537;47.226;39.702;2022-11-23T06:05:09;100474.25;;;11.15;53.66
52651;BME280;38537;47.226;39.702;2022-11-23T06:07:44;100479.00;;;11.15;53.21
52651;BME280;38537;47.226;39.702;2022-11-23T06:10:12;100473.72;;;10.99;53.40
52651;BME280;38537;47.226;39.702;2022-11-23T06:12:45;100459.25;;;11.25;54.02
52651;BME280;38537;47.226;39.702;2022-11-23T06:15:16;100473.91;;;11.30;53.70
52651;BME280;38537;47.226;39.702;2022-11-23T06:17:45;100468.22;;;11.36;53.41
52651;BME280;38537;47.226;39.702;2022-11-23T06:20:16;100478.16;;;11.28;53.80
52651;BME280;38537;47.226;39.702;2022-11-23T06:22:52;100482.63;;;11.29;53.54
52651;BME280;38537;47.226;39.702;2022-11-23T06:25:22;100471.44;;;11.29;54.16
52651;BME280;38537;47.226;39.702;2022-11-23T06:28:11;100480.44;;;11.26;54.07
52651;BME280;38537;47.226;39.702;2022-11-23T06:30:42;100492.34;;;11.18;54.29
52651;BME280;38537;47.226;39.702;2022-11-23T06:33:11;100478.06;;;11.19;54.32
52651;BME280;38537;47.226;39.702;2022-11-23T06:35:54;100454.88;;;11.32;54.88
52651;BME280;38537;47.226;39.702;2022-11-23T06:38:25;100468.13;;;11.54;54.11
52651;BME280;38537;47.226;39.702;2022-11-23T06:41:00;100472.06;;;11.67;53.46
52651;BME280;38537;47.226;39.702;2022-11-23T06:43:30;100465.72;;;11.61;53.22
52651;BME280;38537;47.226;39.702;2022-11-23T06:46:02;100477.22;;;11.60;53.18
52651;BME280;38537;47.226;39.702;2022-11-23T06:48:31;100480.47;;;11.40;53.30
52651;BME280;38537;47.226;39.702;2022-11-23T06:51:00;100480.53;;;11.48;53.35
52651;BME280;38537;47.226;39.702;2022-11-23T06:53:29;100475.47;;;11.50;53.34
52651;BME280;38537;47.226;39.702;2022-11-23T06:56:03;100446.38;;;11.51;53.52
52651;BME280;38537;47.226;39.702;2022-11-23T06:58:31;100486.25;;;11.57;53.41
52651;BME280;38537;47.226;39.702;2022-11-23T07:01:05;100470.59;;;11.56;52.95
52651;BME280;38537;47.226;39.702;2022-11-23T07:03:39;100472.88;;;11.67;53.35
52651;BME280;38537;47.226;39.702;2022-11-23T07:06:25;100447.56;;;11.73;53.06
52651;BME280;38537;47.226;39.702;2022-11-23T07:08:55;100485.00;;;11.77;52.91
52651;BME280;38537;47.226;39.702;2022-11-23T07:11:37;100471.09;;;11.72;53.21
52651;BME280;38537;47.226;39.702;2022-11-23T07:14:05;100480.56;;;11.62;53.08
52651;BME280;38537;47.226;39.702;2022-11-23T07:16:34;100469.31;;;11.76;53.29
52651;BME280;38537;47.226;39.702;2022-11-23T07:19:01;100477.03;;;11.84;53.28
52651;BME280;38537;47.226;39.702;2022-11-23T07:21:30;100474.03;;;11.80;53.10
52651;BME280;38537;47.226;39.702;2022-11-23T07:24:00;100475.84;;;11.71;53.38
52651;BME280;38537;47.226;39.702;2022-11-23T07:26:28;100483.25;;;11.81;53.22
52651;BME280;38537;47.226;39.702;2022-11-23T07:28:56;100460.25;;;11.84;52.96
52651;BME280;38537;47.226;39.702;2022-11-23T07:31:23;100464.59;;;11.90;53.06
52651;BME280;38537;47.226;39.702;2022-11-23T07:33:52;100471.94;;;11.86;53.12
52651;BME280;38537;47.226;39.702;2022-11-23T07:36:20;100469.22;;;11.94;53.06
52651;BME280;38537;47.226;39.702;2022-11-23T07:38:50;100470.75;;;12.00;53.02
52651;BME280;38537;47.226;39.702;2022-11-23T07:41:22;100469.25;;;11.81;53.01
52651;BME280;38537;47.226;39.702;2022-11-23T07:44:12;100485.50;;;11.51;53.79
52651;BME280;38537;47.226;39.702;2022-11-23T07:46:39;100489.66;;;11.13;54.63
52651;BME280;38537;47.226;39.702;2022-11-23T07:49:06;100488.38;;;10.78;54.81
52651;BME280;38537;47.226;39.702;2022-11-23T07:51:34;100490.91;;;10.42;55.59
52651;BME280;38537;47.226;39.702;2022-11-23T07:54:01;100508.72;;;10.08;56.31
52651;BME280;38537;47.226;39.702;2022-11-23T07:56:29;100500.78;;;9.78;56.98
52651;BME280;38537;47.226;39.702;2022-11-23T07:58:57;100493.06;;;9.51;56.95
52651;BME280;38537;47.226;39.702;2022-11-23T08:01:24;100469.94;;;9.50;57.37
52651;BME280;38537;47.226;39.702;2022-11-23T08:03:52;100473.38;;;9.42;57.51
52651;BME280;38537;47.226;39.702;2022-11-23T08:06:19;100486.72;;;9.45;58.17
52651;BME280;38537;47.226;39.702;2022-11-23T08:08:46;100494.75;;;9.28;58.27
52651;BME280;38537;47.226;39.702;2022-11-23T08:11:14;100483.31;;;9.30;58.63
52651;BME280;38537;47.226;39.702;2022-11-23T08:13:44;100488.06;;;9.29;58.13
52651;BME280;38537;47.226;39.702;2022-11-23T08:16:11;100482.28;;;9.20;58.45
52651;BME280;38537;47.226;39.702;2022-11-23T08:18:38;100478.31;;;9.26;58.36
52651;BME280;38537;47.226;39.702;2022-11-23T08:21:05;100494.63;;;9.38;58.29
52651;BME280;38537;47.226;39.702;2022-11-23T08:23:33;100461.59;;;9.26;57.91
52651;BME280;38537;47.226;39.702;2022-11-23T08:26:04;100470.00;;;9.45;57.73
52651;BME280;38537;47.226;39.702;2022-11-23T08:28:38;100470.66;;;9.37;57.28
52651;BME280;38537;47.226;39.702;2022-11-23T08:31:09;100459.63;;;9.51;57.40
52651;BME280;38537;47.226;39.702;2022-11-23T08:33:39;100457.69;;;9.89;56.95
52651;BME280;38537;47.226;39.702;2022-11-23T08:36:07;100451.84;;;10.42;56.07
52651;BME280;38537;47.226;39.702;2022-11-23T08:38:34;100472.00;;;10.71;55.65
52651;BME280;38537;47.226;39.702;2022-11-23T08:41:03;100469.88;;;10.95;54.79
52651;BME280;38537;47.226;39.702;2022-11-23T08:43:31;100477.72;;;10.93;54.39
52651;BME280;38537;47.226;39.702;2022-11-23T08:46:00;100453.31;;;11.13;54.86
52651;BME280;38537;47.226;39.702;2022-11-23T08:48:35;100471.97;;;11.04;54.13
52651;BME280;38537;47.226;39.702;2022-11-23T08:51:02;100481.66;;;11.06;54.22
52651;BME280;38537;47.226;39.702;2022-11-23T08:53:30;100470.91;;;11.27;54.58
52651;BME280;38537;47.226;39.702;2022-11-23T08:56:04;100460.56;;;11.41;54.15
52651;BME280;38537;47.226;39.702;2022-11-23T08:58:33;100480.34;;;11.58;53.23
52651;BME280;38537;47.226;39.702;2022-11-23T09:01:00;100460.56;;;11.68;53.48
52651;BME280;38537;47.226;39.702;2022-11-23T09:03:36;100474.75;;;11.58;53.03
52651;BME280;38537;47.226;39.702;2022-11-23T09:06:05;100486.44;;;11.74;53.64
52651;BME280;38537;47.226;39.702;2022-11-23T09:08:32;100480.84;;;11.88;53.38
52651;BME280;38537;47.226;39.702;2022-11-23T09:11:05;100473.03;;;11.98;53.07
52651;BME280;38537;47.226;39.702;2022-11-23T09:13:35;100491.69;;;12.03;53.23
52651;BME280;38537;47.226;39.702;2022-11-23T09:16:05;100472.19;;;12.12;53.67
52651;BME280;38537;47.226;39.702;2022-11-23T09:18:33;100472.75;;;12.22;53.67
52651;BME280;38537;47.226;39.702;2022-11-23T09:21:03;100466.97;;;12.41;53.14
52651;BME280;38537;47.226;39.702;2022-11-23T09:23:31;100457.38;;;12.33;52.35
52651;BME280;38537;47.226;39.702;2022-11-23T09:26:03;100468.38;;;12.52;53.10
52651;BME280;38537;47.226;39.702;2022-11-23T09:28:31;100450.78;;;12.60;52.44
52651;BME280;38537;47.226;39.702;2022-11-23T09:31:02;100477.09;;;12.51;50.90
52651;BME280;38537;47.226;39.702;2022-11-23T09:33:30;100457.88;;;12.35;52.43
52651;BME280;38537;47.226;39.702;2022-11-23T09:36:02;100460.31;;;12.28;52.13
52651;BME280;38537;47.226;39.702;2022-11-23T09:38:30;100475.81;;;12.57;53.22
52651;BME280;38537;47.226;39.702;2022-11-23T09:41:41;100461.56;;;12.67;51.58
52651;BME280;38537;47.226;39.702;2022-11-23T09:50:07;100472.47;;;12.46;53.00
52651;BME280;38537;47.226;39.702;2022-11-23T09:52:39;100451.91;;;12.28;52.95
52651;BME280;38537;47.226;39.702;2022-11-23T09:55:38;100456.97;;;12.04;52.00
52651;BME280;38537;47.226;39.702;2022-11-23T09:58:14;100465.34;;;12.04;53.06
52651;BME280;38537;47.226;39.702;2022-11-23T10:00:49;100467.91;;;11.78;52.38
52651;BME280;38537;47.226;39.702;2022-11-23T10:03:16;100469.31;;;12.03;53.06
52651;BME280;38537;47.226;39.702;2022-11-23T10:06:15;100476.63;;;11.77;52.83
52651;BME280;38537;47.226;39.702;2022-11-23T10:09:24;100463.03;;;11.84;53.13
52651;BME280;38537;47.226;39.702;2022-11-23T10:22:40;100454.69;;;12.28;53.51
52651;BME280;38537;47.226;39.702;2022-11-23T10:25:17;100447.44;;;12.50;53.48
52651;BME280;38537;47.226;39.702;2022-11-23T10:27:48;100439.16;;;12.45;52.64
52651;BME280;38537;47.226;39.702;2022-11-23T10:30:18;100442.59;;;12.42;52.79
52651;BME280;38537;47.226;39.702;2022-11-23T10:32:57;100447.13;;;12.07;52.98
52651;BME280;38537;47.226;39.702;2022-11-23T10:35:32;100438.13;;;12.18;53.59
52651;BME280;38537;47.226;39.702;2022-11-23T10:38:11;100453.06;;;12.14;53.05
52651;BME280;38537;47.226;39.702;2022-11-23T10:43:46;100436.16;;;11.96;53.79
52651;BME280;38537;47.226;39.702;2022-11-23T10:48:51;100438.22;;;11.91;53.88
52651;BME280;38537;47.226;39.702;2022-11-23T10:56:50;100430.06;;;12.17;53.80
52651;BME280;38537;47.226;39.702;2022-11-23T10:59:35;100437.50;;;12.44;54.30
52651;BME280;38537;47.226;39.702;2022-11-23T11:02:16;100441.38;;;12.56;53.78
52651;BME280;38537;47.226;39.702;2022-11-23T11:04:46;100418.59;;;12.49;53.96
52651;BME280;38537;47.226;39.702;2022-11-23T11:10:00;100423.13;;;12.36;53.42
52651;BME280;38537;47.226;39.702;2022-11-23T11:12:33;100420.06;;;12.47;53.56
52651;BME280;38537;47.226;39.702;2022-11-23T11:15:13;100418.34;;;12.37;53.22
52651;BME280;38537;47.226;39.702;2022-11-23T11:17:41;100408.47;;;12.40;53.90
52651;BME280;38537;47.226;39.702;2022-11-23T11:22:51;100420.94;;;12.56;53.71
52651;BME280;38537;47.226;39.702;2022-11-23T11:25:33;100425.25;;;12.62;53.83
52651;BME280;38537;47.226;39.702;2022-11-23T11:28:03;100434.06;;;12.78;53.64
52651;BME280;38537;47.226;39.702;2022-11-23T11:30:58;100416.59;;;12.72;52.48
52651;BME280;38537;47.226;39.702;2022-11-23T11:33:37;100438.13;;;12.94;53.07
52651;BME280;38537;47.226;39.702;2022-11-23T11:36:11;100437.06;;;13.12;53.03
52651;BME280;38537;47.226;39.702;2022-11-23T11:38:41;100437.19;;;13.07;52.83
52651;BME280;38537;47.226;39.702;2022-11-23T11:41:32;100435.19;;;13.30;52.59
52651;BME280;38537;47.226;39.702;2022-11-23T11:44:08;100441.00;;;13.42;52.40
52651;BME280;38537;47.226;39.702;2022-11-23T11:46:46;100451.72;;;13.49;52.30
52651;BME280;38537;47.226;39.702;2022-11-23T11:49:27;100446.56;;;13.33;52.25
52651;BME280;38537;47.226;39.702;2022-11-23T11:52:04;100447.69;;;13.24;52.80
52651;BME280;38537;47.226;39.702;2022-11-23T11:54:41;100461.88;;;13.19;52.78
52651;BME280;38537;47.226;39.702;2022-11-23T11:57:18;100461.06;;;13.27;53.10
52651;BME280;38537;47.226;39.702;2022-11-23T11:59:48;100454.03;;;13.07;53.15
52651;BME280;38537;47.226;39.702;2022-11-23T12:02:32;100457.72;;;13.16;53.52
52651;BME280;38537;47.226;39.702;2022-11-23T12:05:40;100457.56;;;13.21;53.21
52651;BME280;38537;47.226;39.702;2022-11-23T12:13:15;100464.31;;;12.89;53.57
52651;BME280;38537;47.226;39.702;2022-11-23T12:15:46;100462.06;;;12.69;53.32
52651;BME280;38537;47.226;39.702;2022-11-23T12:35:26;100466.56;;;12.79;54.37
52651;BME280;38537;47.226;39.702;2022-11-23T12:49:52;100460.91;;;12.70;54.54
52651;BME280;38537;47.226;39.702;2022-11-23T12:56:15;100463.53;;;12.22;55.77
52651;BME280;38537;47.226;39.702;2022-11-23T12:58:36;100470.97;;;12.04;56.50
52651;BME280;38537;47.226;39.702;2022-11-23T13:01:18;100477.78;;;12.12;56.44
52651;BME280;38537;47.226;39.702;2022-11-23T13:23:38;100467.09;;;12.58;55.81
52651;BME280;38537;47.226;39.702;2022-11-23T13:26:23;100478.13;;;12.55;55.86
52651;BME280;38537;47.226;39.702;2022-11-23T13:28:55;100481.59;;;12.38;56.21
52651;BME280;38537;47.226;39.702;2022-11-23T13:31:29;100485.69;;;12.32;55.93
52651;BME280;38537;47.226;39.702;2022-11-23T13:34:41;100482.34;;;12.08;56.32
52651;BME280;38537;47.226;39.702;2022-11-23T13:36:58;100492.78;;;11.80;56.65
52651;BME280;38537;47.226;39.702;2022-11-23T13:42:10;100496.06;;;11.13;58.01
52651;BME280;38537;47.226;39.702;2022-11-23T13:44:37;100491.00;;;11.15;58.43
52651;BME280;38537;47.226;39.702;2022-11-23T13:47:06;100495.75;;;11.15;58.22
52651;BME280;38537;47.226;39.702;2022-11-23T13:50:07;100498.16;;;11.35;58.61
52651;BME280;38537;47.226;39.702;2022-11-23T13:52:35;100493.19;;;11.32;58.10
52651;BME280;38537;47.226;39.702;2022-11-23T13:57:41;100491.94;;;11.52;58.29
52651;BME280;38537;47.226;39.702;2022-11-23T14:14:26;100473.28;;;11.06;59.80
52651;BME280;38537;47.226;39.702;2022-11-23T14:42:30;100481.66;;;10.27;61.67
52651;BME280;38537;47.226;39.702;2022-11-23T14:45:02;100482.50;;;10.09;62.61
52651;BME280;38537;47.226;39.702;2022-11-23T14:47:31;100484.59;;;10.17;62.02
52651;BME280;38537;47.226;39.702;2022-11-23T14:49:58;100494.88;;;10.22;62.26
52651;BME280;38537;47.226;39.702;2022-11-23T14:52:28;100493.66;;;10.09;62.58
52651;BME280;38537;47.226;39.702;2022-11-23T14:54:57;100488.06;;;10.09;62.84
52651;BME280;38537;47.226;39.702;2022-11-23T14:57:39;100492.22;;;10.30;63.35
52651;BME280;38537;47.226;39.702;2022-11-23T15:00:24;100498.03;;;10.15;63.43
52651;BME280;38537;47.226;39.702;2022-11-23T15:02:53;100491.16;;;9.89;63.55
52651;BME280;38537;47.226;39.702;2022-11-23T15:05:32;100491.16;;;9.70;64.97
52651;BME280;38537;47.226;39.702;2022-11-23T15:08:22;100489.84;;;9.62;65.10
52651;BME280;38537;47.226;39.702;2022-11-23T15:11:04;100479.59;;;9.58;64.73
52651;BME280;38537;47.226;39.702;2022-11-23T15:13:47;100490.59;;;9.49;65.47
52651;BME280;38537;47.226;39.702;2022-11-23T15:16:18;100484.97;;;9.31;65.53
52651;BME280;38537;47.226;39.702;2022-11-23T15:18:46;100480.69;;;9.14;65.67
52651;BME280;38537;47.226;39.702;2022-11-23T15:21:21;100493.03;;;9.08;67.03
52651;BME280;38537;47.226;39.702;2022-11-23T15:23:55;100465.06;;;8.89;66.50
52651;BME280;38537;47.226;39.702;2022-11-23T15:26:28;100480.31;;;8.97;66.67